createdAt,value
2023-01-02T00:01:43.840Z,100179.08
2023-01-02T00:04:45.383Z,100179.41
2023-01-02T00:07:47.086Z,100168.32
2023-01-02T00:10:52.624Z,100165.59
2023-01-02T00:13:54.580Z,100166.10
2023-01-02T00:16:56.146Z,100159.44
2023-01-02T00:19:57.713Z,100160.30
2023-01-02T00:22:59.261Z,100162.17
2023-01-02T00:26:01.015Z,100161.66
2023-01-02T00:29:02.965Z,100156.89
2023-01-02T00:32:04.816Z,100155.53
2023-01-02T00:35:07.067Z,100147.35
2023-01-02T00:38:08.860Z,100145.63
2023-01-02T00:41:10.489Z,100150.56
2023-01-02T00:44:12.098Z,100158.06
2023-01-02T00:47:13.652Z,100164.20
2023-01-02T00:50:15.322Z,100164.02
2023-01-02T00:53:17.045Z,100162.63
2023-01-02T00:56:18.682Z,100165.67
2023-01-02T00:59:20.436Z,100167.89
2023-01-02T01:02:22.065Z,100172.98
2023-01-02T01:05:27.678Z,100172.47
2023-01-02T01:08:29.301Z,100174.19
2023-01-02T01:11:30.885Z,100169.25
2023-01-02T01:14:32.677Z,100164.48
2023-01-02T01:17:34.429Z,100158.20
2023-01-02T01:20:39.641Z,100152.73
2023-01-02T01:23:41.509Z,100147.71
2023-01-02T01:26:43.192Z,100148.18
2023-01-02T01:29:44.899Z,100152.73
2023-01-02T01:32:46.496Z,100151.17
2023-01-02T01:35:48.453Z,100147.90
2023-01-02T01:38:50.519Z,100145.52
2023-01-02T01:41:52.279Z,100140.77
2023-01-02T01:44:54.404Z,100138.24
2023-01-02T01:47:59.780Z,100134.18
2023-01-02T01:51:04.717Z,100134.02
2023-01-02T01:54:09.862Z,100133.00
2023-01-02T01:57:20.832Z,100139.48
2023-01-02T02:00:23.008Z,100143.73
2023-01-02T02:03:27.390Z,100148.33
2023-01-02T02:06:29.223Z,100144.23
2023-01-02T02:09:39.204Z,100141.52
2023-01-02T02:12:40.916Z,100139.46
2023-01-02T02:16:12.302Z,100139.95
2023-01-02T02:19:45.359Z,100131.08
2023-01-02T02:23:06.332Z,100122.58
2023-01-02T02:26:29.830Z,100129.04
2023-01-02T02:29:54.339Z,100125.45
2023-01-02T02:33:27.172Z,100127.11
2023-01-02T02:36:41.961Z,100130.83
2023-01-02T02:40:13.219Z,100130.30
2023-01-02T02:43:47.610Z,100120.91
2023-01-02T02:47:09.218Z,100118.02
2023-01-02T02:50:32.205Z,100128.05
2023-01-02T02:53:45.870Z,100126.85
2023-01-02T02:56:48.326Z,100128.54
2023-01-02T02:59:49.893Z,100123.59
2023-01-02T03:02:51.804Z,100118.64
2023-01-02T03:06:13.812Z,100113.70
2023-01-02T03:09:29.222Z,100107.08
2023-01-02T03:12:48.089Z,100106.42
2023-01-02T03:16:14.854Z,100105.92
2023-01-02T03:19:43.169Z,100108.48
2023-01-02T03:22:48.883Z,100117.45
2023-01-02T03:25:50.989Z,100122.88
2023-01-02T03:28:59.200Z,100117.41
2023-01-02T03:32:01.765Z,100112.30
2023-01-02T03:35:08.886Z,100110.93
2023-01-02T03:38:15.447Z,100105.66
2023-01-02T03:41:31.636Z,100106.66
2023-01-02T03:45:12.325Z,100107.69
2023-01-02T03:48:18.428Z,100107.14
2023-01-02T03:51:20.189Z,100100.50
2023-01-02T03:54:22.023Z,100101.85
2023-01-02T03:57:33.382Z,100100.84
2023-01-02T04:00:52.194Z,100094.54
2023-01-02T04:04:08.143Z,100088.59
2023-01-02T04:07:17.643Z,100086.35
2023-01-02T04:10:19.491Z,100085.69
2023-01-02T04:13:22.080Z,100081.77
2023-01-02T04:16:26.171Z,100071.52
2023-01-02T04:19:33.396Z,100073.89
2023-01-02T04:22:39.681Z,100072.35
2023-01-02T04:25:54.989Z,100072.02
2023-01-02T04:28:56.707Z,100068.96
2023-01-02T04:32:15.143Z,100070.16
2023-01-02T04:35:21.670Z,100063.52
2023-01-02T04:38:23.168Z,100061.27
2023-01-02T04:41:26.397Z,100059.38
2023-01-02T04:44:27.971Z,100052.73
2023-01-02T04:47:29.493Z,100051.71
2023-01-02T04:50:31.059Z,100054.42
2023-01-02T04:53:32.811Z,100051.36
2023-01-02T04:56:34.423Z,100050.84
2023-01-02T04:59:36.017Z,100049.31
2023-01-02T05:02:38.662Z,100044.52
2023-01-02T05:05:40.616Z,100049.75
2023-01-02T05:08:42.374Z,100048.39
2023-01-02T05:11:43.927Z,100053.59
2023-01-02T05:14:45.524Z,100053.30
2023-01-02T05:17:47.138Z,100049.06
2023-01-02T05:20:49.032Z,100043.35
2023-01-02T05:23:50.538Z,100047.63
2023-01-02T05:26:52.451Z,100051.42
2023-01-02T05:29:54.050Z,100047.04
2023-01-02T05:32:55.866Z,100043.34
2023-01-02T05:35:57.350Z,100042.01
2023-01-02T05:38:58.984Z,100041.02
2023-01-02T05:42:00.595Z,100035.02
2023-01-02T05:45:02.170Z,100032.36
2023-01-02T05:48:03.875Z,100025.91
2023-01-02T05:51:07.014Z,100023.94
2023-01-02T05:54:08.595Z,100026.86
2023-01-02T05:57:10.121Z,100030.95
2023-01-02T06:00:12.360Z,100028.04
2023-01-02T06:03:13.964Z,100033.45
2023-01-02T06:06:17.303Z,100034.04
2023-01-02T06:09:18.870Z,100033.37
2023-01-02T06:12:20.590Z,100027.91
2023-01-02T06:15:22.343Z,100020.89
2023-01-02T06:18:23.961Z,100023.41
2023-01-02T06:21:25.982Z,100025.27
2023-01-02T06:24:27.828Z,100026.83
2023-01-02T06:27:32.048Z,100026.00
2023-01-02T06:30:33.665Z,100023.29
2023-01-02T06:33:35.845Z,100023.19
2023-01-02T06:36:37.469Z,100025.60
2023-01-02T06:39:39.215Z,100031.91
2023-01-02T06:42:43.421Z,100031.08
2023-01-02T06:45:45.278Z,100031.96
2023-01-02T06:48:47.220Z,100033.04
2023-01-02T06:51:48.793Z,100036.84
2023-01-02T06:54:50.364Z,100040.98
2023-01-02T06:57:51.905Z,100044.77
2023-01-02T07:00:53.812Z,100043.81
2023-01-02T07:03:55.604Z,100038.11
2023-01-02T07:06:57.063Z,100040.55
2023-01-02T07:09:58.610Z,100038.90
2023-01-02T07:13:00.449Z,100040.14
2023-01-02T07:16:05.556Z,100044.92
2023-01-02T07:19:07.398Z,100050.61
2023-01-02T07:22:10.669Z,100047.40
2023-01-02T07:25:12.301Z,100047.21
2023-01-02T07:28:13.905Z,100046.91
2023-01-02T07:31:17.881Z,100043.50
2023-01-02T07:34:19.639Z,100043.84
2023-01-02T07:37:21.940Z,100042.65
2023-01-02T07:40:27.300Z,100040.61
2023-01-02T07:43:33.615Z,100040.63
2023-01-02T07:46:35.392Z,100037.20
2023-01-02T07:49:37.461Z,100036.17
2023-01-02T07:52:39.083Z,100038.37
2023-01-02T07:55:40.796Z,100039.73
2023-01-02T07:58:42.524Z,100038.34
2023-01-02T08:01:44.366Z,100040.00
2023-01-02T08:04:46.041Z,100040.98
2023-01-02T08:07:47.741Z,100038.72
2023-01-02T08:10:49.307Z,100038.85
2023-01-02T08:13:50.865Z,100030.78
2023-01-02T08:16:52.585Z,100032.08
2023-01-02T08:19:54.122Z,100035.73
2023-01-02T08:22:56.236Z,100031.30
2023-01-02T08:26:02.541Z,100035.17
2023-01-02T08:29:04.180Z,100037.92
2023-01-02T08:32:05.817Z,100039.84
2023-01-02T08:35:07.952Z,100040.39
2023-01-02T08:38:09.643Z,100040.59
2023-01-02T08:41:11.219Z,100038.77
2023-01-02T08:44:12.912Z,100040.33
2023-01-02T08:47:14.450Z,100043.13
2023-01-02T08:50:16.220Z,100045.54
2023-01-02T08:53:18.356Z,100045.36
2023-01-02T08:56:20.081Z,100043.13
2023-01-02T08:59:24.116Z,100033.68
2023-01-02T09:02:26.062Z,100028.60
2023-01-02T09:05:28.089Z,100024.88
2023-01-02T09:08:29.807Z,100023.89
2023-01-02T09:11:35.338Z,100023.68
2023-01-02T09:14:37.477Z,100021.45
2023-01-02T09:17:39.026Z,100017.01
2023-01-02T09:20:40.921Z,100015.23
2023-01-02T09:23:42.645Z,100007.52
2023-01-02T09:26:44.507Z,100004.44
2023-01-02T09:29:46.097Z,100005.61
2023-01-02T09:32:47.753Z,100003.96
2023-01-02T09:35:49.720Z,100000.95
2023-01-02T09:38:53.000Z,99999.80
2023-01-02T09:41:56.732Z,99991.64
2023-01-02T09:45:08.601Z,99985.66
2023-01-02T09:48:17.216Z,99976.33
2023-01-02T09:51:19.026Z,99965.71
2023-01-02T09:54:27.610Z,99964.70
2023-01-02T09:57:29.303Z,99957.72
2023-01-02T10:00:33.059Z,99956.61
2023-01-02T10:04:00.124Z,99955.36
2023-01-02T10:07:15.668Z,99956.30
2023-01-02T10:10:49.746Z,99950.85
2023-01-02T10:17:21.221Z,99946.39
2023-01-02T10:20:25.411Z,99935.79
2023-01-02T10:23:30.756Z,99930.77
2023-01-02T10:26:36.053Z,99926.54
2023-01-02T10:29:43.882Z,99924.79
2023-01-02T10:33:11.925Z,99929.87
2023-01-02T10:36:22.581Z,99922.80
2023-01-02T10:39:26.200Z,99919.60
2023-01-02T10:42:27.945Z,99909.77
2023-01-02T10:45:29.824Z,99909.72
2023-01-02T10:48:34.512Z,99907.04
2023-01-02T10:51:38.182Z,99908.48
2023-01-02T10:55:00.140Z,99899.64
2023-01-02T10:58:12.499Z,99898.34
2023-01-02T11:01:16.185Z,99891.66
2023-01-02T11:04:29.740Z,99887.94
2023-01-02T11:07:37.513Z,99882.59
2023-01-02T11:10:39.116Z,99879.67
2023-01-02T11:13:53.847Z,99872.17
2023-01-02T11:17:03.692Z,99866.01
2023-01-02T11:20:29.776Z,99857.48
2023-01-02T11:23:36.921Z,99848.95
2023-01-02T11:26:39.539Z,99840.64
2023-01-02T11:29:46.147Z,99839.10
2023-01-02T11:32:47.737Z,99835.81
2023-01-02T11:35:52.597Z,99825.48
2023-01-02T11:38:55.832Z,99827.23
2023-01-02T11:42:04.941Z,99828.75
2023-01-02T11:45:11.986Z,99825.45
2023-01-02T11:48:21.434Z,99824.16
2023-01-02T11:51:23.423Z,99821.45
2023-01-02T11:54:41.599Z,99817.94
2023-01-02T11:57:49.783Z,99810.95
2023-01-02T12:00:54.930Z,99802.89
2023-01-02T12:03:57.009Z,99803.85
2023-01-02T12:07:34.297Z,99792.52
2023-01-02T12:11:10.591Z,99786.92
2023-01-02T12:14:20.406Z,99784.68
2023-01-02T12:17:41.332Z,99777.77
2023-01-02T12:20:55.588Z,99771.92
2023-01-02T12:24:16.665Z,99767.27
2023-01-02T12:27:42.831Z,99769.95
2023-01-02T12:30:52.906Z,99770.13
2023-01-02T12:34:07.596Z,99771.27
2023-01-02T12:37:12.555Z,99768.58
2023-01-02T12:40:35.876Z,99765.92
2023-01-02T12:44:00.265Z,99761.95
2023-01-02T12:47:08.202Z,99760.45
2023-01-02T12:50:33.376Z,99758.14
2023-01-02T12:53:41.815Z,99756.73
2023-01-02T12:57:28.115Z,99757.84
2023-01-02T13:00:35.820Z,99754.02
2023-01-02T13:03:47.998Z,99751.12
2023-01-02T13:07:04.010Z,99747.64
2023-01-02T13:10:06.889Z,99747.69
2023-01-02T13:13:10.116Z,99744.52
2023-01-02T13:16:24.487Z,99747.78
2023-01-02T13:19:44.417Z,99749.92
2023-01-02T13:23:04.843Z,99753.48
2023-01-02T13:26:10.933Z,99748.82
2023-01-02T13:29:12.480Z,99752.25
2023-01-02T13:32:14.717Z,99752.95
2023-01-02T13:35:16.615Z,99757.30
2023-01-02T13:38:18.805Z,99761.65
2023-01-02T13:41:20.959Z,99764.09
2023-01-02T13:44:32.694Z,99764.73
2023-01-02T13:47:36.996Z,99765.85
2023-01-02T13:50:39.037Z,99769.27
2023-01-02T13:53:46.234Z,99775.28
2023-01-02T13:57:25.925Z,99778.33
2023-01-02T14:00:37.995Z,99779.55
2023-01-02T14:03:39.745Z,99777.21
2023-01-02T14:06:47.224Z,99775.66
2023-01-02T14:10:09.667Z,99772.58
2023-01-02T14:13:21.716Z,99768.74
2023-01-02T14:16:23.223Z,99768.66
2023-01-02T14:19:26.173Z,99766.62
2023-01-02T14:22:27.833Z,99769.48
2023-01-02T14:25:32.883Z,99781.04
2023-01-02T14:28:38.972Z,99787.58
2023-01-02T14:31:41.450Z,99787.27
2023-01-02T14:34:46.409Z,99778.20
2023-01-02T14:37:54.287Z,99781.06
2023-01-02T14:40:56.087Z,99782.61
2023-01-02T14:43:58.417Z,99793.95
2023-01-02T14:47:02.399Z,99795.73
2023-01-02T14:50:06.759Z,99802.75
2023-01-02T14:53:19.527Z,99814.49
2023-01-02T14:56:26.778Z,99810.20
2023-01-02T14:59:31.239Z,99808.83
2023-01-02T15:02:39.943Z,99808.88
2023-01-02T15:05:45.839Z,99814.98
2023-01-02T15:08:49.678Z,99812.25
2023-01-02T15:11:56.510Z,99807.39
2023-01-02T15:14:58.036Z,99808.88
2023-01-02T15:18:00.726Z,99808.34
2023-01-02T15:21:13.588Z,99811.13
2023-01-02T15:24:19.512Z,99812.91
2023-01-02T15:27:27.646Z,99813.79
2023-01-02T15:30:31.929Z,99820.50
2023-01-02T15:33:34.354Z,99823.47
2023-01-02T15:36:38.640Z,99824.70
2023-01-02T15:39:43.111Z,99822.27
2023-01-02T15:42:45.437Z,99823.56
2023-01-02T15:45:49.111Z,99830.54
2023-01-02T15:48:51.097Z,99835.17
2023-01-02T15:51:53.253Z,99841.48
2023-01-02T15:54:55.569Z,99837.92
2023-01-02T15:57:57.541Z,99830.39
2023-01-02T16:01:20.195Z,99826.84
2023-01-02T16:04:27.808Z,99832.58
2023-01-02T16:07:29.531Z,99837.59
2023-01-02T16:10:31.178Z,99840.92
2023-01-02T16:13:36.436Z,99842.34
2023-01-02T16:16:49.649Z,99845.65
2023-01-02T16:19:58.836Z,99849.77
2023-01-02T16:23:04.532Z,99846.17
2023-01-02T16:26:06.641Z,99846.50
2023-01-02T16:29:17.545Z,99845.44
2023-01-02T16:32:32.966Z,99837.70
2023-01-02T16:35:34.747Z,99835.20
2023-01-02T16:38:54.177Z,99831.99
2023-01-02T16:41:57.261Z,99835.77
2023-01-02T16:44:58.991Z,99844.50
2023-01-02T16:48:00.525Z,99848.89
2023-01-02T16:51:02.131Z,99844.69
2023-01-02T16:54:03.671Z,99844.60
2023-01-02T16:57:12.015Z,99849.21
2023-01-02T17:00:14.724Z,99852.04
2023-01-02T17:03:22.189Z,99845.93
2023-01-02T17:06:24.035Z,99839.67
2023-01-02T17:09:25.598Z,99840.92
2023-01-02T17:12:27.235Z,99841.09
2023-01-02T17:15:28.732Z,99841.76
2023-01-02T17:18:30.333Z,99846.46
2023-01-02T17:21:33.118Z,99842.48
2023-01-02T17:24:35.112Z,99838.86
2023-01-02T17:27:36.774Z,99836.30
2023-01-02T17:30:41.707Z,99835.78
2023-01-02T17:33:43.410Z,99836.40
2023-01-02T17:36:44.966Z,99835.90
2023-01-02T17:39:46.494Z,99837.80
2023-01-02T17:42:48.489Z,99839.65
2023-01-02T17:45:50.136Z,99841.73
2023-01-02T17:48:51.746Z,99848.60
2023-01-02T17:51:53.346Z,99848.80
2023-01-02T17:54:56.994Z,99848.91
2023-01-02T17:57:58.775Z,99844.38
2023-01-02T18:01:00.527Z,99836.09
2023-01-02T18:04:02.131Z,99831.86
2023-01-02T18:07:03.678Z,99833.63
2023-01-02T18:10:12.593Z,99822.85
2023-01-02T18:13:16.358Z,99818.33
2023-01-02T18:16:21.097Z,99823.67
2023-01-02T18:19:28.032Z,99821.60
2023-01-02T18:22:30.448Z,99826.69
2023-01-02T18:25:32.034Z,99822.77
2023-01-02T18:28:33.901Z,99829.83
2023-01-02T18:31:39.322Z,99830.94
2023-01-02T18:34:52.417Z,99827.02
2023-01-02T18:38:00.532Z,99825.53
2023-01-02T18:41:27.345Z,99825.06
2023-01-02T18:44:28.949Z,99820.08
2023-01-02T18:47:39.687Z,99818.08
2023-01-02T18:50:41.494Z,99825.13
2023-01-02T18:53:51.652Z,99825.27
2023-01-02T18:56:54.289Z,99829.65
2023-01-02T19:00:01.947Z,99833.19
2023-01-02T19:03:18.828Z,99834.86
2023-01-02T19:06:23.430Z,99833.20
2023-01-02T19:09:34.054Z,99833.35
2023-01-02T19:12:41.089Z,99839.17
2023-01-02T19:15:49.760Z,99843.02
2023-01-02T19:18:53.887Z,99852.17
2023-01-02T19:21:55.839Z,99858.84
2023-01-02T19:25:05.251Z,99857.48
2023-01-02T19:28:18.918Z,99855.80
2023-01-02T19:31:20.657Z,99853.95
2023-01-02T19:34:24.132Z,99856.53
2023-01-02T19:37:36.133Z,99850.39
2023-01-02T19:40:37.902Z,99853.73
2023-01-02T19:43:39.470Z,99847.69
2023-01-02T19:46:41.026Z,99843.16
2023-01-02T19:49:42.816Z,99842.35
2023-01-02T19:52:44.641Z,99846.21
2023-01-02T19:55:46.057Z,99850.33
2023-01-02T19:58:47.698Z,99858.08
2023-01-02T20:01:49.305Z,99859.12
2023-01-02T20:04:50.984Z,99853.89
2023-01-02T20:07:53.173Z,99849.54
2023-01-02T20:10:54.788Z,99849.08
2023-01-02T20:13:56.405Z,99851.52
2023-01-02T20:16:58.044Z,99850.91
2023-01-02T20:19:59.928Z,99856.40
2023-01-02T20:23:01.508Z,99861.09
2023-01-02T20:26:03.112Z,99864.45
2023-01-02T20:29:04.786Z,99865.48
2023-01-02T20:32:06.574Z,99867.30
2023-01-02T20:35:08.564Z,99880.57
2023-01-02T20:38:10.208Z,99880.46
2023-01-02T20:41:11.841Z,99877.84
2023-01-02T20:44:14.286Z,99874.27
2023-01-02T20:47:17.186Z,99869.69
2023-01-02T20:50:18.824Z,99870.43
2023-01-02T20:53:20.534Z,99871.64
2023-01-02T20:56:22.215Z,99879.83
2023-01-02T20:59:23.915Z,99888.33
2023-01-02T21:02:28.708Z,99896.05
2023-01-02T21:05:30.589Z,99894.66
2023-01-02T21:08:32.083Z,99895.69
2023-01-02T21:11:34.117Z,99895.39
2023-01-02T21:14:37.857Z,99896.11
2023-01-02T21:17:39.622Z,99903.66
2023-01-02T21:20:46.184Z,99895.86
2023-01-02T21:23:49.627Z,99904.98
2023-01-02T21:26:51.244Z,99908.54
2023-01-02T21:29:53.024Z,99913.26
2023-01-02T21:32:54.677Z,99915.17
2023-01-02T21:35:57.462Z,99913.65
2023-01-02T21:38:59.033Z,99910.30
2023-01-02T21:42:00.639Z,99917.76
2023-01-02T21:45:02.385Z,99926.31
2023-01-02T21:48:04.093Z,99929.78
2023-01-02T21:51:06.550Z,99937.04
2023-01-02T21:54:08.179Z,99939.96
2023-01-02T21:57:10.111Z,99943.08
2023-01-02T22:00:16.918Z,99946.52
2023-01-02T22:03:18.806Z,99955.42
2023-01-02T22:06:20.549Z,99958.77
2023-01-02T22:09:22.265Z,99960.47
2023-01-02T22:12:24.060Z,99966.53
2023-01-02T22:15:25.747Z,99963.45
2023-01-02T22:18:27.314Z,99962.39
2023-01-02T22:21:28.913Z,99957.67
2023-01-02T22:24:30.843Z,99962.25
2023-01-02T22:27:32.412Z,99960.64
2023-01-02T22:30:35.161Z,99961.38
2023-01-02T22:33:37.272Z,99964.64
2023-01-02T22:36:38.953Z,99965.80
2023-01-02T22:39:40.615Z,99963.54
2023-01-02T22:43:00.298Z,99966.92
2023-01-02T22:46:05.909Z,99970.80
2023-01-02T22:49:12.649Z,99973.90
2023-01-02T22:52:14.316Z,99969.77
2023-01-02T22:55:17.291Z,99970.26
2023-01-02T22:58:19.431Z,99966.74
2023-01-02T23:01:32.517Z,99965.89
2023-01-02T23:04:34.423Z,99971.43
2023-01-02T23:07:36.224Z,99973.25
2023-01-02T23:10:37.829Z,99966.70
2023-01-02T23:13:39.564Z,99971.92
2023-01-02T23:16:41.469Z,99979.38
2023-01-02T23:19:43.123Z,99983.42
2023-01-02T23:22:44.814Z,99984.20
2023-01-02T23:25:46.375Z,99986.30
2023-01-02T23:32:09.839Z,99993.74
2023-01-02T23:35:11.528Z,99995.39
2023-01-02T23:38:13.012Z,100001.18
2023-01-02T23:41:14.558Z,100002.00
2023-01-02T23:44:16.910Z,99999.02
2023-01-02T23:47:19.448Z,99998.56
2023-01-02T23:50:21.287Z,100005.66
2023-01-02T23:53:23.025Z,100009.08
2023-01-02T23:56:31.769Z,100005.98
2023-01-02T23:59:33.379Z,100007.63
